Ashton, Nebraska
Current Conditions -  °F | °C
As of 4:17 AM on Saturday 22 Nov 2014 (Local Time) from KODX Reporting Station
Haze Haze  
Wind Chill: 27°   Ceiling: 200
Heat Index: 27°   Visibility: 1mi
Dew Point: 26°   Wind: 3mph
Humidity: 96%   Direction: 110°ESE
Pressure: 29.82"   Gusts: NA
Location:  41.25°N, 98.79°W
Report Text: KODX 221017Z AUTO 11003KT 1SM BR VV002 M03/M03 A2982 RMK AO2 T10281033
Loading
Personal Weather Stations






























Interactive Weather Map New forecast layout! Learn more

10-Day Weather Forecast

Advertisements
Track Severe Weather on mobile